sensor_id;sensor_type;location;lat;lon;timestamp;temperature;humidity
28773;DHT22;15925;51.222;5.678;2024-02-28T00:01:50;3.00;99.90
28773;DHT22;15925;51.222;5.678;2024-02-28T00:04:17;2.80;99.90
28773;DHT22;15925;51.222;5.678;2024-02-28T00:06:43;2.80;99.90
28773;DHT22;15925;51.222;5.678;2024-02-28T00:09:10;2.80;99.90
28773;DHT22;15925;51.222;5.678;2024-02-28T00:11:40;2.80;99.90
28773;DHT22;15925;51.222;5.678;2024-02-28T00:14:06;2.80;99.90
28773;DHT22;15925;51.222;5.678;2024-02-28T00:16:32;2.80;99.90
28773;DHT22;15925;51.222;5.678;2024-02-28T00:18:57;2.80;99.90
28773;DHT22;15925;51.222;5.678;2024-02-28T00:21:23;2.80;99.90
28773;DHT22;15925;51.222;5.678;2024-02-28T00:23:49;2.80;99.90
28773;DHT22;15925;51.222;5.678;2024-02-28T00:26:14;2.80;99.90
28773;DHT22;15925;51.222;5.678;2024-02-28T00:28:40;2.80;99.90
28773;DHT22;15925;51.222;5.678;2024-02-28T00:31:06;2.90;99.90
28773;DHT22;15925;51.222;5.678;2024-02-28T00:33:31;2.80;99.90
28773;DHT22;15925;51.222;5.678;2024-02-28T00:35:57;2.90;99.90
28773;DHT22;15925;51.222;5.678;2024-02-28T00:38:23;2.90;99.90
28773;DHT22;15925;51.222;5.678;2024-02-28T00:40:49;2.90;99.90
28773;DHT22;15925;51.222;5.678;2024-02-28T00:43:14;2.80;99.90
28773;DHT22;15925;51.222;5.678;2024-02-28T00:45:40;2.80;99.90
28773;DHT22;15925;51.222;5.678;2024-02-28T00:48:06;2.60;99.90
28773;DHT22;15925;51.222;5.678;2024-02-28T00:50:32;2.60;99.90
28773;DHT22;15925;51.222;5.678;2024-02-28T00:52:58;2.60;99.90
28773;DHT22;15925;51.222;5.678;2024-02-28T00:55:23;2.60;99.90
28773;DHT22;15925;51.222;5.678;2024-02-28T00:57:49;2.60;99.90
28773;DHT22;15925;51.222;5.678;2024-02-28T01:00:15;2.70;99.90
28773;DHT22;15925;51.222;5.678;2024-02-28T01:02:41;2.70;99.90
28773;DHT22;15925;51.222;5.678;2024-02-28T01:05:07;2.70;99.90
28773;DHT22;15925;51.222;5.678;2024-02-28T01:07:33;2.60;99.90
28773;DHT22;15925;51.222;5.678;2024-02-28T01:09:59;2.60;99.90
28773;DHT22;15925;51.222;5.678;2024-02-28T01:12:25;2.70;99.90
28773;DHT22;15925;51.222;5.678;2024-02-28T01:14:50;2.70;99.90
28773;DHT22;15925;51.222;5.678;2024-02-28T01:17:16;2.70;99.90
28773;DHT22;15925;51.222;5.678;2024-02-28T01:19:42;2.70;99.90
28773;DHT22;15925;51.222;5.678;2024-02-28T01:22:07;2.70;99.90
28773;DHT22;15925;51.222;5.678;2024-02-28T01:24:34;2.70;99.90
28773;DHT22;15925;51.222;5.678;2024-02-28T01:27:00;2.70;99.90
28773;DHT22;15925;51.222;5.678;2024-02-28T01:29:26;2.70;99.90
28773;DHT22;15925;51.222;5.678;2024-02-28T01:31:52;2.50;99.90
28773;DHT22;15925;51.222;5.678;2024-02-28T01:34:18;2.60;99.90
28773;DHT22;15925;51.222;5.678;2024-02-28T01:36:44;2.60;99.90
28773;DHT22;15925;51.222;5.678;2024-02-28T01:39:10;2.60;99.90
28773;DHT22;15925;51.222;5.678;2024-02-28T01:41:36;2.60;99.90
28773;DHT22;15925;51.222;5.678;2024-02-28T01:44:01;2.60;99.90
28773;DHT22;15925;51.222;5.678;2024-02-28T01:46:29;2.70;99.90
28773;DHT22;15925;51.222;5.678;2024-02-28T01:48:55;2.70;99.90
28773;DHT22;15925;51.222;5.678;2024-02-28T01:51:24;2.70;99.90
28773;DHT22;15925;51.222;5.678;2024-02-28T01:53:51;2.70;99.90
28773;DHT22;15925;51.222;5.678;2024-02-28T01:56:19;2.70;99.90
28773;DHT22;15925;51.222;5.678;2024-02-28T01:58:48;2.70;99.90
28773;DHT22;15925;51.222;5.678;2024-02-28T02:01:15;2.70;99.90
28773;DHT22;15925;51.222;5.678;2024-02-28T02:03:46;2.70;99.90
28773;DHT22;15925;51.222;5.678;2024-02-28T02:06:12;2.70;99.90
28773;DHT22;15925;51.222;5.678;2024-02-28T02:08:38;2.70;99.90
28773;DHT22;15925;51.222;5.678;2024-02-28T02:11:05;2.70;99.90
28773;DHT22;15925;51.222;5.678;2024-02-28T02:13:34;2.80;99.90
28773;DHT22;15925;51.222;5.678;2024-02-28T02:16:01;2.80;99.90
28773;DHT22;15925;51.222;5.678;2024-02-28T02:18:27;2.80;99.90
28773;DHT22;15925;51.222;5.678;2024-02-28T02:20:58;2.90;99.90
28773;DHT22;15925;51.222;5.678;2024-02-28T02:23:25;2.90;99.90
28773;DHT22;15925;51.222;5.678;2024-02-28T02:25:51;2.90;99.90
28773;DHT22;15925;51.222;5.678;2024-02-28T02:28:17;2.70;99.90
28773;DHT22;15925;51.222;5.678;2024-02-28T02:30:43;2.60;99.90
28773;DHT22;15925;51.222;5.678;2024-02-28T02:33:08;2.60;99.90
28773;DHT22;15925;51.222;5.678;2024-02-28T02:35:34;2.60;99.90
28773;DHT22;15925;51.222;5.678;2024-02-28T02:38:00;2.50;99.90
28773;DHT22;15925;51.222;5.678;2024-02-28T02:40:26;2.60;99.90
28773;DHT22;15925;51.222;5.678;2024-02-28T02:42:52;2.50;99.90
28773;DHT22;15925;51.222;5.678;2024-02-28T02:45:17;2.40;99.90
28773;DHT22;15925;51.222;5.678;2024-02-28T02:47:43;2.40;99.90
28773;DHT22;15925;51.222;5.678;2024-02-28T02:50:12;2.30;99.90
28773;DHT22;15925;51.222;5.678;2024-02-28T02:52:38;2.40;99.90
28773;DHT22;15925;51.222;5.678;2024-02-28T02:55:04;2.50;99.90
28773;DHT22;15925;51.222;5.678;2024-02-28T02:57:31;2.60;99.90
28773;DHT22;15925;51.222;5.678;2024-02-28T02:59:57;2.60;99.90
28773;DHT22;15925;51.222;5.678;2024-02-28T03:02:23;2.70;99.90
28773;DHT22;15925;51.222;5.678;2024-02-28T03:04:49;2.70;99.90
28773;DHT22;15925;51.222;5.678;2024-02-28T03:07:14;2.80;99.90
28773;DHT22;15925;51.222;5.678;2024-02-28T03:09:40;2.80;99.90
28773;DHT22;15925;51.222;5.678;2024-02-28T03:12:06;2.80;99.90
28773;DHT22;15925;51.222;5.678;2024-02-28T03:14:34;2.80;99.90
28773;DHT22;15925;51.222;5.678;2024-02-28T03:17:00;2.80;99.90
28773;DHT22;15925;51.222;5.678;2024-02-28T03:19:25;2.80;99.90
28773;DHT22;15925;51.222;5.678;2024-02-28T03:21:51;2.70;99.90
28773;DHT22;15925;51.222;5.678;2024-02-28T03:24:17;2.70;99.90
28773;DHT22;15925;51.222;5.678;2024-02-28T03:26:43;2.70;99.90
28773;DHT22;15925;51.222;5.678;2024-02-28T03:29:09;2.70;99.90
28773;DHT22;15925;51.222;5.678;2024-02-28T03:31:35;2.80;99.90
28773;DHT22;15925;51.222;5.678;2024-02-28T03:34:01;2.80;99.90
28773;DHT22;15925;51.222;5.678;2024-02-28T03:36:28;2.80;99.90
28773;DHT22;15925;51.222;5.678;2024-02-28T03:38:54;2.80;99.90
28773;DHT22;15925;51.222;5.678;2024-02-28T03:41:20;2.90;99.90
28773;DHT22;15925;51.222;5.678;2024-02-28T03:43:46;2.90;99.90
28773;DHT22;15925;51.222;5.678;2024-02-28T03:46:11;2.80;99.90
28773;DHT22;15925;51.222;5.678;2024-02-28T03:48:37;2.90;99.90
28773;DHT22;15925;51.222;5.678;2024-02-28T03:51:03;2.90;99.90
28773;DHT22;15925;51.222;5.678;2024-02-28T03:53:29;2.80;99.90
28773;DHT22;15925;51.222;5.678;2024-02-28T03:55:55;2.90;99.90
28773;DHT22;15925;51.222;5.678;2024-02-28T03:58:20;2.90;99.90
28773;DHT22;15925;51.222;5.678;2024-02-28T04:00:46;2.90;99.90
28773;DHT22;15925;51.222;5.678;2024-02-28T04:03:13;2.90;99.90
28773;DHT22;15925;51.222;5.678;2024-02-28T04:05:40;2.90;99.90
28773;DHT22;15925;51.222;5.678;2024-02-28T04:08:06;3.00;99.90
28773;DHT22;15925;51.222;5.678;2024-02-28T04:10:31;2.90;99.90
28773;DHT22;15925;51.222;5.678;2024-02-28T04:12:57;2.90;99.90
28773;DHT22;15925;51.222;5.678;2024-02-28T04:15:23;3.00;99.90
28773;DHT22;15925;51.222;5.678;2024-02-28T04:17:51;2.90;99.90
28773;DHT22;15925;51.222;5.678;2024-02-28T04:20:17;2.90;99.90
28773;DHT22;15925;51.222;5.678;2024-02-28T04:22:43;3.00;99.90
28773;DHT22;15925;51.222;5.678;2024-02-28T04:25:09;3.00;99.90
28773;DHT22;15925;51.222;5.678;2024-02-28T04:27:38;3.00;99.90
28773;DHT22;15925;51.222;5.678;2024-02-28T04:30:05;3.00;99.90
28773;DHT22;15925;51.222;5.678;2024-02-28T04:32:32;2.90;99.90
28773;DHT22;15925;51.222;5.678;2024-02-28T04:34:58;2.90;99.90
28773;DHT22;15925;51.222;5.678;2024-02-28T04:37:24;3.00;99.90
28773;DHT22;15925;51.222;5.678;2024-02-28T04:39:49;3.00;99.90
28773;DHT22;15925;51.222;5.678;2024-02-28T04:42:16;3.00;99.90
28773;DHT22;15925;51.222;5.678;2024-02-28T04:44:42;3.00;99.90
28773;DHT22;15925;51.222;5.678;2024-02-28T04:47:07;3.00;99.90
28773;DHT22;15925;51.222;5.678;2024-02-28T04:49:36;3.00;99.90
28773;DHT22;15925;51.222;5.678;2024-02-28T04:52:02;3.00;99.90
28773;DHT22;15925;51.222;5.678;2024-02-28T04:54:28;3.00;99.90
28773;DHT22;15925;51.222;5.678;2024-02-28T04:56:54;3.00;99.90
28773;DHT22;15925;51.222;5.678;2024-02-28T04:59:19;3.00;99.90
28773;DHT22;15925;51.222;5.678;2024-02-28T05:01:45;3.00;99.90
28773;DHT22;15925;51.222;5.678;2024-02-28T05:04:11;3.00;99.90
28773;DHT22;15925;51.222;5.678;2024-02-28T05:06:37;3.00;99.90
28773;DHT22;15925;51.222;5.678;2024-02-28T05:09:03;3.00;99.90
28773;DHT22;15925;51.222;5.678;2024-02-28T05:11:28;3.00;99.90
28773;DHT22;15925;51.222;5.678;2024-02-28T05:13:54;3.00;99.90
28773;DHT22;15925;51.222;5.678;2024-02-28T05:16:20;3.00;99.90
28773;DHT22;15925;51.222;5.678;2024-02-28T05:18:46;3.00;99.90
28773;DHT22;15925;51.222;5.678;2024-02-28T05:21:12;2.90;99.90
28773;DHT22;15925;51.222;5.678;2024-02-28T05:23:39;2.90;99.90
28773;DHT22;15925;51.222;5.678;2024-02-28T05:26:05;2.90;99.90
28773;DHT22;15925;51.222;5.678;2024-02-28T05:28:35;2.90;99.90
28773;DHT22;15925;51.222;5.678;2024-02-28T05:31:25;3.00;99.90
28773;DHT22;15925;51.222;5.678;2024-02-28T05:33:54;2.90;99.90
28773;DHT22;15925;51.222;5.678;2024-02-28T05:36:26;2.90;99.90
28773;DHT22;15925;51.222;5.678;2024-02-28T05:38:53;2.90;99.90
28773;DHT22;15925;51.222;5.678;2024-02-28T05:41:20;2.90;99.90
28773;DHT22;15925;51.222;5.678;2024-02-28T05:43:46;2.90;99.90
28773;DHT22;15925;51.222;5.678;2024-02-28T05:46:13;2.90;99.90
28773;DHT22;15925;51.222;5.678;2024-02-28T05:48:45;2.90;99.90
28773;DHT22;15925;51.222;5.678;2024-02-28T05:51:12;2.90;99.90
28773;DHT22;15925;51.222;5.678;2024-02-28T05:53:39;2.90;99.90
28773;DHT22;15925;51.222;5.678;2024-02-28T05:56:06;2.90;99.90
28773;DHT22;15925;51.222;5.678;2024-02-28T05:58:46;2.90;99.90
28773;DHT22;15925;51.222;5.678;2024-02-28T06:01:15;2.90;99.90
28773;DHT22;15925;51.222;5.678;2024-02-28T06:03:41;2.90;99.90
28773;DHT22;15925;51.222;5.678;2024-02-28T06:06:07;2.90;99.90
28773;DHT22;15925;51.222;5.678;2024-02-28T06:08:38;2.80;99.90
28773;DHT22;15925;51.222;5.678;2024-02-28T06:11:05;2.80;99.90
28773;DHT22;15925;51.222;5.678;2024-02-28T06:13:30;2.90;99.90
28773;DHT22;15925;51.222;5.678;2024-02-28T06:15:57;2.80;99.90
28773;DHT22;15925;51.222;5.678;2024-02-28T06:18:23;2.90;99.90
28773;DHT22;15925;51.222;5.678;2024-02-28T06:20:53;2.90;99.90
28773;DHT22;15925;51.222;5.678;2024-02-28T06:23:19;2.90;99.90
28773;DHT22;15925;51.222;5.678;2024-02-28T06:25:45;2.90;99.90
28773;DHT22;15925;51.222;5.678;2024-02-28T06:28:10;2.90;99.90
28773;DHT22;15925;51.222;5.678;2024-02-28T06:30:36;2.90;99.90
28773;DHT22;15925;51.222;5.678;2024-02-28T06:33:02;2.90;99.90
28773;DHT22;15925;51.222;5.678;2024-02-28T06:35:28;2.90;99.90
28773;DHT22;15925;51.222;5.678;2024-02-28T06:37:54;2.90;99.90
28773;DHT22;15925;51.222;5.678;2024-02-28T06:40:20;2.90;99.90
28773;DHT22;15925;51.222;5.678;2024-02-28T06:42:46;2.90;99.90
28773;DHT22;15925;51.222;5.678;2024-02-28T06:45:11;3.00;99.90
28773;DHT22;15925;51.222;5.678;2024-02-28T06:47:37;3.00;99.90
28773;DHT22;15925;51.222;5.678;2024-02-28T06:50:04;3.00;99.90
28773;DHT22;15925;51.222;5.678;2024-02-28T06:52:30;3.00;99.90
28773;DHT22;15925;51.222;5.678;2024-02-28T06:54:56;3.00;99.90
28773;DHT22;15925;51.222;5.678;2024-02-28T06:57:22;3.00;99.90
28773;DHT22;15925;51.222;5.678;2024-02-28T06:59:48;3.00;99.90
28773;DHT22;15925;51.222;5.678;2024-02-28T07:02:14;2.90;99.90
28773;DHT22;15925;51.222;5.678;2024-02-28T07:04:41;3.00;99.90
28773;DHT22;15925;51.222;5.678;2024-02-28T07:07:07;3.00;99.90
28773;DHT22;15925;51.222;5.678;2024-02-28T07:09:33;3.00;99.90
28773;DHT22;15925;51.222;5.678;2024-02-28T07:12:00;3.10;99.90
28773;DHT22;15925;51.222;5.678;2024-02-28T07:14:26;3.10;99.90
28773;DHT22;15925;51.222;5.678;2024-02-28T07:16:52;3.10;99.90
28773;DHT22;15925;51.222;5.678;2024-02-28T07:19:18;3.10;99.90
28773;DHT22;15925;51.222;5.678;2024-02-28T07:21:44;3.10;99.90
28773;DHT22;15925;51.222;5.678;2024-02-28T07:24:10;3.20;99.90
28773;DHT22;15925;51.222;5.678;2024-02-28T07:26:36;3.20;99.90
28773;DHT22;15925;51.222;5.678;2024-02-28T07:29:02;3.10;99.90
28773;DHT22;15925;51.222;5.678;2024-02-28T07:31:28;3.20;99.90
28773;DHT22;15925;51.222;5.678;2024-02-28T07:33:54;3.20;99.90
28773;DHT22;15925;51.222;5.678;2024-02-28T07:36:20;3.20;99.90
28773;DHT22;15925;51.222;5.678;2024-02-28T07:38:46;3.20;99.90
28773;DHT22;15925;51.222;5.678;2024-02-28T07:41:12;3.30;99.90
28773;DHT22;15925;51.222;5.678;2024-02-28T07:43:42;3.40;99.90
28773;DHT22;15925;51.222;5.678;2024-02-28T07:46:09;3.40;99.90
28773;DHT22;15925;51.222;5.678;2024-02-28T07:48:37;3.40;99.90
28773;DHT22;15925;51.222;5.678;2024-02-28T07:51:06;3.50;99.90
28773;DHT22;15925;51.222;5.678;2024-02-28T07:53:32;3.50;99.90
28773;DHT22;15925;51.222;5.678;2024-02-28T07:55:58;3.40;99.90
28773;DHT22;15925;51.222;5.678;2024-02-28T07:58:24;3.50;99.90
28773;DHT22;15925;51.222;5.678;2024-02-28T08:00:50;3.50;99.90
28773;DHT22;15925;51.222;5.678;2024-02-28T08:03:18;3.60;99.90
28773;DHT22;15925;51.222;5.678;2024-02-28T08:05:44;3.60;99.90
28773;DHT22;15925;51.222;5.678;2024-02-28T08:08:10;3.70;99.90
28773;DHT22;15925;51.222;5.678;2024-02-28T08:10:37;3.70;99.90
28773;DHT22;15925;51.222;5.678;2024-02-28T08:13:04;3.70;99.90
28773;DHT22;15925;51.222;5.678;2024-02-28T08:15:30;3.80;99.90
28773;DHT22;15925;51.222;5.678;2024-02-28T08:17:56;3.80;99.90
28773;DHT22;15925;51.222;5.678;2024-02-28T08:20:22;3.90;99.90
28773;DHT22;15925;51.222;5.678;2024-02-28T08:22:47;4.00;99.90
28773;DHT22;15925;51.222;5.678;2024-02-28T08:25:13;4.00;99.90
28773;DHT22;15925;51.222;5.678;2024-02-28T08:27:39;4.10;99.90
28773;DHT22;15925;51.222;5.678;2024-02-28T08:30:06;4.10;99.90
28773;DHT22;15925;51.222;5.678;2024-02-28T08:32:32;4.10;99.90
28773;DHT22;15925;51.222;5.678;2024-02-28T08:34:58;4.20;99.90
28773;DHT22;15925;51.222;5.678;2024-02-28T08:37:24;4.20;99.90
28773;DHT22;15925;51.222;5.678;2024-02-28T08:39:51;4.30;99.90
28773;DHT22;15925;51.222;5.678;2024-02-28T08:42:17;4.40;99.90
28773;DHT22;15925;51.222;5.678;2024-02-28T08:44:43;4.40;99.90
28773;DHT22;15925;51.222;5.678;2024-02-28T08:47:09;4.40;99.90
28773;DHT22;15925;51.222;5.678;2024-02-28T08:49:38;4.50;99.90
28773;DHT22;15925;51.222;5.678;2024-02-28T08:52:04;4.50;99.90
28773;DHT22;15925;51.222;5.678;2024-02-28T08:54:30;4.60;99.90
28773;DHT22;15925;51.222;5.678;2024-02-28T08:56:56;4.70;99.90
28773;DHT22;15925;51.222;5.678;2024-02-28T08:59:22;4.80;99.90
28773;DHT22;15925;51.222;5.678;2024-02-28T09:01:48;4.80;99.90
28773;DHT22;15925;51.222;5.678;2024-02-28T09:04:14;4.80;99.90
28773;DHT22;15925;51.222;5.678;2024-02-28T09:06:40;4.90;99.90
28773;DHT22;15925;51.222;5.678;2024-02-28T09:09:06;4.90;99.90
28773;DHT22;15925;51.222;5.678;2024-02-28T09:11:32;5.00;99.90
28773;DHT22;15925;51.222;5.678;2024-02-28T09:13:59;5.00;99.90
28773;DHT22;15925;51.222;5.678;2024-02-28T09:16:24;5.10;99.90
28773;DHT22;15925;51.222;5.678;2024-02-28T09:18:50;5.20;99.90
28773;DHT22;15925;51.222;5.678;2024-02-28T09:21:16;5.20;99.90
28773;DHT22;15925;51.222;5.678;2024-02-28T09:23:42;5.30;99.90
28773;DHT22;15925;51.222;5.678;2024-02-28T09:26:08;5.40;99.90
28773;DHT22;15925;51.222;5.678;2024-02-28T09:28:33;5.40;99.90
28773;DHT22;15925;51.222;5.678;2024-02-28T09:30:59;5.50;99.90
28773;DHT22;15925;51.222;5.678;2024-02-28T09:33:25;5.50;99.90
28773;DHT22;15925;51.222;5.678;2024-02-28T09:35:51;5.70;99.90
28773;DHT22;15925;51.222;5.678;2024-02-28T09:38:17;5.70;99.90
28773;DHT22;15925;51.222;5.678;2024-02-28T09:40:46;5.80;99.90
28773;DHT22;15925;51.222;5.678;2024-02-28T09:43:34;6.00;99.90
28773;DHT22;15925;51.222;5.678;2024-02-28T09:46:05;6.00;99.90
28773;DHT22;15925;51.222;5.678;2024-02-28T09:48:32;6.10;99.90
28773;DHT22;15925;51.222;5.678;2024-02-28T09:50:59;6.20;99.90
28773;DHT22;15925;51.222;5.678;2024-02-28T09:53:26;6.30;99.90
28773;DHT22;15925;51.222;5.678;2024-02-28T09:55:53;6.30;99.90
28773;DHT22;15925;51.222;5.678;2024-02-28T09:58:19;6.30;99.90
28773;DHT22;15925;51.222;5.678;2024-02-28T10:00:48;6.30;99.90
28773;DHT22;15925;51.222;5.678;2024-02-28T10:03:17;6.30;99.90
28773;DHT22;15925;51.222;5.678;2024-02-28T10:05:46;6.30;99.90
28773;DHT22;15925;51.222;5.678;2024-02-28T10:08:13;6.30;99.90
28773;DHT22;15925;51.222;5.678;2024-02-28T10:10:49;6.40;99.90
28773;DHT22;15925;51.222;5.678;2024-02-28T10:13:19;6.30;99.90
28773;DHT22;15925;51.222;5.678;2024-02-28T10:15:45;6.30;99.90
28773;DHT22;15925;51.222;5.678;2024-02-28T10:18:11;6.30;99.90
28773;DHT22;15925;51.222;5.678;2024-02-28T10:20:37;6.20;99.90
28773;DHT22;15925;51.222;5.678;2024-02-28T10:23:07;6.20;99.90
28773;DHT22;15925;51.222;5.678;2024-02-28T10:25:45;6.30;99.90
28773;DHT22;15925;51.222;5.678;2024-02-28T10:28:12;6.30;99.90
28773;DHT22;15925;51.222;5.678;2024-02-28T10:30:43;6.40;99.90
28773;DHT22;15925;51.222;5.678;2024-02-28T10:33:12;6.40;99.90
28773;DHT22;15925;51.222;5.678;2024-02-28T10:35:42;6.40;99.90
28773;DHT22;15925;51.222;5.678;2024-02-28T10:38:13;6.60;99.90
28773;DHT22;15925;51.222;5.678;2024-02-28T10:40:42;6.60;99.90
28773;DHT22;15925;51.222;5.678;2024-02-28T10:43:08;6.70;99.90
28773;DHT22;15925;51.222;5.678;2024-02-28T10:45:38;6.80;99.90
28773;DHT22;15925;51.222;5.678;2024-02-28T10:48:05;6.90;99.90
28773;DHT22;15925;51.222;5.678;2024-02-28T10:50:31;7.00;99.90
28773;DHT22;15925;51.222;5.678;2024-02-28T10:53:13;7.10;99.90
28773;DHT22;15925;51.222;5.678;2024-02-28T10:55:42;7.20;99.90
28773;DHT22;15925;51.222;5.678;2024-02-28T10:58:12;7.30;99.90
28773;DHT22;15925;51.222;5.678;2024-02-28T11:00:41;7.40;99.90
28773;DHT22;15925;51.222;5.678;2024-02-28T11:03:10;7.40;99.90
28773;DHT22;15925;51.222;5.678;2024-02-28T11:05:40;7.50;99.90
28773;DHT22;15925;51.222;5.678;2024-02-28T11:08:10;7.60;99.90
28773;DHT22;15925;51.222;5.678;2024-02-28T11:10:43;7.70;99.90
28773;DHT22;15925;51.222;5.678;2024-02-28T11:13:21;7.80;99.90
28773;DHT22;15925;51.222;5.678;2024-02-28T11:15:47;7.90;99.90
28773;DHT22;15925;51.222;5.678;2024-02-28T11:18:13;8.00;99.90
28773;DHT22;15925;51.222;5.678;2024-02-28T11:20:39;8.10;99.90
28773;DHT22;15925;51.222;5.678;2024-02-28T11:23:08;8.10;99.90
28773;DHT22;15925;51.222;5.678;2024-02-28T11:25:35;8.20;99.90
28773;DHT22;15925;51.222;5.678;2024-02-28T11:28:01;8.30;99.90
28773;DHT22;15925;51.222;5.678;2024-02-28T11:30:26;8.40;99.90
28773;DHT22;15925;51.222;5.678;2024-02-28T11:32:55;8.40;99.90
28773;DHT22;15925;51.222;5.678;2024-02-28T11:35:24;8.40;99.90
28773;DHT22;15925;51.222;5.678;2024-02-28T11:37:50;8.50;99.90
28773;DHT22;15925;51.222;5.678;2024-02-28T11:40:19;8.50;99.90
28773;DHT22;15925;51.222;5.678;2024-02-28T11:42:45;8.50;99.90
28773;DHT22;15925;51.222;5.678;2024-02-28T11:45:11;8.50;99.90
28773;DHT22;15925;51.222;5.678;2024-02-28T11:47:37;8.60;99.90
28773;DHT22;15925;51.222;5.678;2024-02-28T11:50:03;8.60;99.90
28773;DHT22;15925;51.222;5.678;2024-02-28T11:52:33;8.70;99.90
28773;DHT22;15925;51.222;5.678;2024-02-28T11:54:59;8.80;99.90
28773;DHT22;15925;51.222;5.678;2024-02-28T11:57:28;8.80;99.90
28773;DHT22;15925;51.222;5.678;2024-02-28T11:59:56;8.90;99.90
28773;DHT22;15925;51.222;5.678;2024-02-28T12:02:23;8.80;99.90
28773;DHT22;15925;51.222;5.678;2024-02-28T12:04:52;8.80;99.90
28773;DHT22;15925;51.222;5.678;2024-02-28T12:07:20;8.90;99.90
28773;DHT22;15925;51.222;5.678;2024-02-28T12:09:46;9.00;99.90
28773;DHT22;15925;51.222;5.678;2024-02-28T12:12:13;8.90;99.90
28773;DHT22;15925;51.222;5.678;2024-02-28T12:14:40;9.00;99.90
28773;DHT22;15925;51.222;5.678;2024-02-28T12:17:05;9.10;99.90
28773;DHT22;15925;51.222;5.678;2024-02-28T12:19:34;9.10;99.90
28773;DHT22;15925;51.222;5.678;2024-02-28T12:22:00;9.20;99.90
28773;DHT22;15925;51.222;5.678;2024-02-28T12:24:26;9.20;99.90
28773;DHT22;15925;51.222;5.678;2024-02-28T12:26:52;9.30;99.90
28773;DHT22;15925;51.222;5.678;2024-02-28T12:29:18;9.30;99.90
28773;DHT22;15925;51.222;5.678;2024-02-28T12:31:44;9.30;99.90
28773;DHT22;15925;51.222;5.678;2024-02-28T12:34:09;9.40;99.90
28773;DHT22;15925;51.222;5.678;2024-02-28T12:36:35;9.40;99.90
28773;DHT22;15925;51.222;5.678;2024-02-28T12:39:01;9.50;99.90
28773;DHT22;15925;51.222;5.678;2024-02-28T12:41:27;9.50;99.90
28773;DHT22;15925;51.222;5.678;2024-02-28T12:43:53;9.60;99.90
28773;DHT22;15925;51.222;5.678;2024-02-28T12:46:19;9.70;99.90
28773;DHT22;15925;51.222;5.678;2024-02-28T12:48:45;9.70;99.90
28773;DHT22;15925;51.222;5.678;2024-02-28T12:51:41;9.80;99.90
28773;DHT22;15925;51.222;5.678;2024-02-28T12:54:08;9.90;99.90
28773;DHT22;15925;51.222;5.678;2024-02-28T12:56:38;10.00;99.90
28773;DHT22;15925;51.222;5.678;2024-02-28T12:59:05;10.00;99.90
28773;DHT22;15925;51.222;5.678;2024-02-28T13:01:33;10.00;99.90
28773;DHT22;15925;51.222;5.678;2024-02-28T13:03:58;10.10;99.90
28773;DHT22;15925;51.222;5.678;2024-02-28T13:06:24;10.10;99.90
28773;DHT22;15925;51.222;5.678;2024-02-28T13:08:50;10.10;99.90
28773;DHT22;15925;51.222;5.678;2024-02-28T13:11:22;10.20;99.90
28773;DHT22;15925;51.222;5.678;2024-02-28T13:13:49;10.20;99.90
28773;DHT22;15925;51.222;5.678;2024-02-28T13:16:19;10.20;99.90
28773;DHT22;15925;51.222;5.678;2024-02-28T13:18:45;10.20;99.90
28773;DHT22;15925;51.222;5.678;2024-02-28T13:21:11;10.20;99.90
28773;DHT22;15925;51.222;5.678;2024-02-28T13:23:37;10.30;99.90
28773;DHT22;15925;51.222;5.678;2024-02-28T13:26:04;10.30;99.90
28773;DHT22;15925;51.222;5.678;2024-02-28T13:28:30;10.40;99.90
28773;DHT22;15925;51.222;5.678;2024-02-28T13:31:00;10.50;99.90
28773;DHT22;15925;51.222;5.678;2024-02-28T13:33:26;10.50;99.90
28773;DHT22;15925;51.222;5.678;2024-02-28T13:35:53;10.50;99.90
28773;DHT22;15925;51.222;5.678;2024-02-28T13:38:19;10.60;99.90
28773;DHT22;15925;51.222;5.678;2024-02-28T13:40:45;10.70;99.90
28773;DHT22;15925;51.222;5.678;2024-02-28T13:43:12;10.70;99.90
28773;DHT22;15925;51.222;5.678;2024-02-28T13:45:46;10.70;99.90
28773;DHT22;15925;51.222;5.678;2024-02-28T13:48:19;10.60;99.90
28773;DHT22;15925;51.222;5.678;2024-02-28T13:50:54;10.70;99.90
28773;DHT22;15925;51.222;5.678;2024-02-28T13:53:20;10.70;99.90
28773;DHT22;15925;51.222;5.678;2024-02-28T13:55:46;10.60;99.90
28773;DHT22;15925;51.222;5.678;2024-02-28T13:58:12;10.60;99.90
28773;DHT22;15925;51.222;5.678;2024-02-28T14:00:38;10.60;99.90
28773;DHT22;15925;51.222;5.678;2024-02-28T14:03:05;10.60;99.90
28773;DHT22;15925;51.222;5.678;2024-02-28T14:05:32;10.50;99.90
28773;DHT22;15925;51.222;5.678;2024-02-28T14:07:58;10.50;99.90
28773;DHT22;15925;51.222;5.678;2024-02-28T14:10:24;10.50;99.90
28773;DHT22;15925;51.222;5.678;2024-02-28T14:12:50;10.50;99.90
28773;DHT22;15925;51.222;5.678;2024-02-28T14:15:22;10.60;99.90
28773;DHT22;15925;51.222;5.678;2024-02-28T14:17:48;10.50;99.90
28773;DHT22;15925;51.222;5.678;2024-02-28T14:20:14;10.50;99.90
28773;DHT22;15925;51.222;5.678;2024-02-28T14:22:40;10.50;99.90
28773;DHT22;15925;51.222;5.678;2024-02-28T14:25:12;10.50;99.90
28773;DHT22;15925;51.222;5.678;2024-02-28T14:27:45;10.60;99.90
28773;DHT22;15925;51.222;5.678;2024-02-28T14:30:12;10.60;99.90
28773;DHT22;15925;51.222;5.678;2024-02-28T14:32:39;10.60;99.90
28773;DHT22;15925;51.222;5.678;2024-02-28T14:35:08;10.60;99.90
28773;DHT22;15925;51.222;5.678;2024-02-28T14:37:34;10.60;99.90
28773;DHT22;15925;51.222;5.678;2024-02-28T14:40:04;10.60;99.90
28773;DHT22;15925;51.222;5.678;2024-02-28T14:42:36;10.50;99.90
28773;DHT22;15925;51.222;5.678;2024-02-28T14:45:03;10.50;99.90
28773;DHT22;15925;51.222;5.678;2024-02-28T14:47:29;10.40;99.90
28773;DHT22;15925;51.222;5.678;2024-02-28T14:49:55;10.50;99.90
28773;DHT22;15925;51.222;5.678;2024-02-28T14:52:20;10.40;99.90
28773;DHT22;15925;51.222;5.678;2024-02-28T14:54:47;10.40;99.90
28773;DHT22;15925;51.222;5.678;2024-02-28T14:57:13;10.40;99.90
28773;DHT22;15925;51.222;5.678;2024-02-28T14:59:40;10.50;99.90
28773;DHT22;15925;51.222;5.678;2024-02-28T15:02:06;10.50;99.90
28773;DHT22;15925;51.222;5.678;2024-02-28T15:04:33;10.50;99.90
28773;DHT22;15925;51.222;5.678;2024-02-28T15:06:59;10.60;99.90
28773;DHT22;15925;51.222;5.678;2024-02-28T15:09:24;10.60;99.90
28773;DHT22;15925;51.222;5.678;2024-02-28T15:11:50;10.60;99.90
28773;DHT22;15925;51.222;5.678;2024-02-28T15:14:16;10.70;99.90
28773;DHT22;15925;51.222;5.678;2024-02-28T15:16:42;10.70;99.90
28773;DHT22;15925;51.222;5.678;2024-02-28T15:19:08;10.70;99.90
28773;DHT22;15925;51.222;5.678;2024-02-28T15:21:34;10.70;99.90
28773;DHT22;15925;51.222;5.678;2024-02-28T15:24:01;10.70;99.90
28773;DHT22;15925;51.222;5.678;2024-02-28T15:26:28;10.80;99.90
28773;DHT22;15925;51.222;5.678;2024-02-28T15:28:54;10.80;99.90
28773;DHT22;15925;51.222;5.678;2024-02-28T15:31:20;10.80;99.90
28773;DHT22;15925;51.222;5.678;2024-02-28T15:33:47;10.80;99.90
28773;DHT22;15925;51.222;5.678;2024-02-28T15:36:12;10.90;99.90
28773;DHT22;15925;51.222;5.678;2024-02-28T15:38:38;11.00;99.90
28773;DHT22;15925;51.222;5.678;2024-02-28T15:41:04;11.00;99.90